createdAt,value
2022-08-03T00:01:17.058Z,65.90
2022-08-03T00:04:58.863Z,66.40
2022-08-03T00:08:40.680Z,66.10
2022-08-03T00:12:22.476Z,66.10
2022-08-03T00:16:04.581Z,66.10
2022-08-03T00:19:46.899Z,66.00
2022-08-03T00:23:50.819Z,66.20
2022-08-03T00:27:30.521Z,66.60
2022-08-03T00:31:14.727Z,66.80
2022-08-03T00:34:57.703Z,66.70
2022-08-03T00:38:41.010Z,66.70
2022-08-03T00:42:22.806Z,66.80
2022-08-03T00:46:10.655Z,66.90
2022-08-03T00:49:52.457Z,67.00
2022-08-03T00:53:36.859Z,67.10
2022-08-03T00:57:18.741Z,67.30
2022-08-03T01:01:00.719Z,67.30
2022-08-03T01:04:42.650Z,67.30
2022-08-03T01:08:46.181Z,67.40
2022-08-03T01:12:57.126Z,67.80
2022-08-03T01:16:57.019Z,69.60
2022-08-03T01:20:43.623Z,69.00
2022-08-03T01:25:04.219Z,67.90
2022-08-03T01:29:01.628Z,69.60
2022-08-03T01:33:03.140Z,68.20
2022-08-03T01:36:51.286Z,68.10
2022-08-03T01:40:34.409Z,68.70
2022-08-03T01:44:30.279Z,69.00
2022-08-03T01:48:17.410Z,68.10
2022-08-03T01:52:04.402Z,68.60
2022-08-03T01:55:49.562Z,68.30
2022-08-03T01:59:34.482Z,68.30
2022-08-03T02:03:17.218Z,68.70
2022-08-03T02:07:03.086Z,68.90
2022-08-03T02:10:46.997Z,68.90
2022-08-03T02:14:30.637Z,68.80
2022-08-03T02:18:14.043Z,68.90
2022-08-03T02:22:01.029Z,68.90
2022-08-03T02:25:45.974Z,69.10
2022-08-03T02:29:40.406Z,69.80
2022-08-03T02:33:31.739Z,69.00
2022-08-03T02:37:14.946Z,69.80
2022-08-03T02:40:58.774Z,69.10
2022-08-03T02:44:43.749Z,69.40
2022-08-03T02:48:28.797Z,69.40
2022-08-03T02:52:15.745Z,69.70
2022-08-03T02:55:59.490Z,69.60
2022-08-03T02:59:42.833Z,69.60
2022-08-03T03:03:25.941Z,69.80
2022-08-03T03:07:13.660Z,70.00
2022-08-03T03:11:00.511Z,70.20
2022-08-03T03:14:42.406Z,70.40
2022-08-03T03:18:25.080Z,70.40
2022-08-03T03:22:08.414Z,70.40
2022-08-03T03:25:51.416Z,70.60
2022-08-03T03:29:39.462Z,70.50
2022-08-03T03:33:22.425Z,70.70
2022-08-03T03:37:05.106Z,70.80
2022-08-03T03:40:47.716Z,71.00
2022-08-03T03:44:30.524Z,71.20
2022-08-03T03:48:12.426Z,71.40
2022-08-03T03:51:55.493Z,71.40
2022-08-03T03:55:59.456Z,71.60
2022-08-03T03:59:43.158Z,71.80
2022-08-03T04:03:24.959Z,72.20
2022-08-03T04:07:25.479Z,72.10
2022-08-03T04:11:45.312Z,71.80
2022-08-03T04:15:28.807Z,72.30
2022-08-03T04:19:22.716Z,72.10
2022-08-03T04:23:13.738Z,73.20
2022-08-03T04:26:59.471Z,72.40
2022-08-03T04:30:48.233Z,72.50
2022-08-03T04:34:30.444Z,72.60
2022-08-03T04:38:15.583Z,72.90
2022-08-03T04:42:08.617Z,72.80
2022-08-03T04:45:51.913Z,73.30
2022-08-03T04:49:37.299Z,72.80
2022-08-03T04:53:19.576Z,72.90
2022-08-03T04:57:01.660Z,73.30
2022-08-03T05:00:45.429Z,73.10
2022-08-03T05:04:27.375Z,73.10
2022-08-03T05:08:11.231Z,73.10
2022-08-03T05:11:53.568Z,73.10
2022-08-03T05:15:35.971Z,73.10
2022-08-03T05:19:25.146Z,73.00
2022-08-03T05:23:06.943Z,73.20
2022-08-03T05:26:48.747Z,73.20
2022-08-03T05:30:34.359Z,73.40
2022-08-03T05:34:16.477Z,73.60
2022-08-03T05:37:58.303Z,73.40
2022-08-03T05:41:40.398Z,73.60
2022-08-03T05:45:25.419Z,73.70
2022-08-03T05:49:10.163Z,73.80
2022-08-03T05:52:57.599Z,74.20
2022-08-03T05:56:42.650Z,75.20
2022-08-03T06:00:25.026Z,74.60
2022-08-03T06:04:07.588Z,74.70
2022-08-03T06:07:49.412Z,74.80
2022-08-03T06:11:31.243Z,74.90
2022-08-03T06:15:13.294Z,74.90
2022-08-03T06:18:55.458Z,75.00
2022-08-03T06:22:37.257Z,75.10
2022-08-03T06:26:32.989Z,75.20
2022-08-03T06:30:19.290Z,75.10
2022-08-03T06:34:32.657Z,75.30
2022-08-03T06:38:06.430Z,75.60
2022-08-03T06:41:48.211Z,75.40
2022-08-03T06:45:31.810Z,75.60
2022-08-03T06:49:14.105Z,75.70
2022-08-03T06:52:56.092Z,75.70
2022-08-03T06:56:38.016Z,75.70
2022-08-03T07:00:20.870Z,75.80
2022-08-03T07:04:02.742Z,75.90
2022-08-03T07:07:44.867Z,76.10
2022-08-03T07:11:28.562Z,75.70
2022-08-03T07:15:20.468Z,75.70
2022-08-03T07:19:12.564Z,75.90
2022-08-03T07:22:54.391Z,76.00
2022-08-03T07:26:36.216Z,76.00
2022-08-03T07:30:18.541Z,76.00
2022-08-03T07:34:00.419Z,76.00
2022-08-03T07:37:42.293Z,76.00
2022-08-03T07:41:36.134Z,76.10
2022-08-03T07:45:18.000Z,76.20
2022-08-03T07:48:59.888Z,76.20
2022-08-03T07:52:55.971Z,76.30
2022-08-03T07:56:37.866Z,76.30
2022-08-03T08:00:20.016Z,76.90
2022-08-03T08:04:01.938Z,76.30
2022-08-03T08:07:43.999Z,76.30
2022-08-03T08:11:34.837Z,76.30
2022-08-03T08:15:20.129Z,76.30
2022-08-03T08:19:02.405Z,76.10
2022-08-03T08:22:44.294Z,76.00
2022-08-03T08:26:26.326Z,75.90
2022-08-03T08:30:12.219Z,75.90
2022-08-03T08:34:09.504Z,75.70
2022-08-03T08:37:51.466Z,75.80
2022-08-03T08:41:36.009Z,75.50
2022-08-03T08:45:19.319Z,75.50
2022-08-03T08:49:05.034Z,75.40
2022-08-03T08:52:49.459Z,75.40
2022-08-03T08:56:33.819Z,75.30
2022-08-03T09:00:16.431Z,75.20
2022-08-03T09:03:58.329Z,75.20
2022-08-03T09:07:44.184Z,75.30
2022-08-03T09:11:54.498Z,75.10
2022-08-03T09:15:33.134Z,75.00
2022-08-03T09:19:15.261Z,74.70
2022-08-03T09:23:59.186Z,74.50
2022-08-03T09:27:13.521Z,74.70
2022-08-03T09:31:00.191Z,74.30
2022-08-03T09:34:43.141Z,74.50
2022-08-03T09:38:28.473Z,74.30
2022-08-03T09:42:18.740Z,74.10
2022-08-03T09:46:07.604Z,74.00
2022-08-03T09:50:05.659Z,73.70
2022-08-03T09:53:57.098Z,73.70
2022-08-03T09:57:45.441Z,73.60
2022-08-03T10:01:34.113Z,73.80
2022-08-03T10:05:19.770Z,73.90
2022-08-03T10:09:09.459Z,73.70
2022-08-03T10:12:52.486Z,73.90
2022-08-03T10:16:37.469Z,73.60
2022-08-03T10:20:19.353Z,73.70
2022-08-03T10:24:06.250Z,74.00
2022-08-03T10:27:52.299Z,74.30
2022-08-03T10:31:54.528Z,74.40
2022-08-03T10:35:41.718Z,74.40
2022-08-03T10:39:27.653Z,74.40
2022-08-03T10:43:20.947Z,74.50
2022-08-03T10:47:03.817Z,74.70
2022-08-03T10:50:48.358Z,74.40
2022-08-03T10:55:03.587Z,74.30
2022-08-03T10:58:57.687Z,74.50
2022-08-03T11:03:14.445Z,74.10
2022-08-03T11:07:21.743Z,74.30
2022-08-03T11:11:23.943Z,74.10
2022-08-03T11:15:08.726Z,74.10
2022-08-03T11:19:01.126Z,73.80
2022-08-03T11:22:51.298Z,73.40
2022-08-03T11:26:33.701Z,73.20
2022-08-03T11:30:18.394Z,73.30
2022-08-03T11:34:10.545Z,73.20
2022-08-03T11:38:03.193Z,73.30
2022-08-03T11:41:47.194Z,73.20
2022-08-03T11:45:29.202Z,73.10
2022-08-03T11:49:11.915Z,72.90
2022-08-03T11:52:54.905Z,73.00
2022-08-03T11:56:48.977Z,72.80
2022-08-03T12:00:32.499Z,73.40
2022-08-03T12:04:16.209Z,73.10
2022-08-03T12:08:03.887Z,72.90
2022-08-03T12:12:00.008Z,72.90
2022-08-03T12:15:43.091Z,72.90
2022-08-03T12:19:24.930Z,72.80
2022-08-03T12:23:08.012Z,72.80
2022-08-03T12:26:57.240Z,72.90
2022-08-03T12:30:41.676Z,73.30
2022-08-03T12:34:23.527Z,73.30
2022-08-03T12:38:05.966Z,73.70
2022-08-03T12:41:53.699Z,73.80
2022-08-03T12:45:36.758Z,73.40
2022-08-03T12:49:19.610Z,72.80
2022-08-03T12:53:05.171Z,72.60
2022-08-03T12:57:07.607Z,72.20
2022-08-03T13:00:58.325Z,71.30
2022-08-03T13:04:40.139Z,71.30
2022-08-03T13:08:24.401Z,71.40
2022-08-03T13:12:10.117Z,71.40
2022-08-03T13:15:52.354Z,71.30
2022-08-03T13:19:36.353Z,71.30
2022-08-03T13:23:22.291Z,71.10
2022-08-03T13:28:02.335Z,70.80
2022-08-03T13:31:08.578Z,70.50
2022-08-03T13:34:50.567Z,70.50
2022-08-03T13:38:32.647Z,70.20
2022-08-03T13:42:15.173Z,69.60
2022-08-03T13:45:57.978Z,69.20
2022-08-03T13:49:39.881Z,68.80
2022-08-03T13:53:21.747Z,68.70
2022-08-03T13:58:02.554Z,68.80
2022-08-03T14:01:06.430Z,68.70
2022-08-03T14:04:48.249Z,68.80
2022-08-03T14:08:30.118Z,68.80
2022-08-03T14:12:12.075Z,68.30
2022-08-03T14:15:55.576Z,68.00
2022-08-03T14:19:53.461Z,67.50
2022-08-03T14:23:40.188Z,67.00
2022-08-03T14:27:23.430Z,65.90
2022-08-03T14:31:08.437Z,65.70
2022-08-03T14:35:07.503Z,64.90
2022-08-03T14:38:49.395Z,65.00
2022-08-03T14:42:31.305Z,64.70
2022-08-03T14:46:13.160Z,64.10
2022-08-03T14:50:38.634Z,64.20
2022-08-03T14:53:56.767Z,63.10
2022-08-03T14:57:38.534Z,63.10
2022-08-03T15:02:02.222Z,63.10
2022-08-03T15:05:22.249Z,63.10
2022-08-03T15:09:21.624Z,62.30
2022-08-03T15:13:05.192Z,61.10
2022-08-03T15:16:46.982Z,60.70
2022-08-03T15:20:42.621Z,60.50
2022-08-03T15:24:25.669Z,60.10
2022-08-03T15:28:07.446Z,59.80
2022-08-03T15:31:49.265Z,59.60
2022-08-03T15:35:31.078Z,59.30
2022-08-03T15:39:13.028Z,59.20
2022-08-03T15:42:54.949Z,59.30
2022-08-03T15:46:36.877Z,59.10
2022-08-03T15:50:18.778Z,59.10
2022-08-03T15:54:00.565Z,59.00
2022-08-03T15:59:11.280Z,58.60
2022-08-03T16:01:44.243Z,58.00
2022-08-03T16:05:26.157Z,58.30
2022-08-03T16:09:23.652Z,58.10
2022-08-03T16:13:10.869Z,57.10
2022-08-03T16:16:53.387Z,56.40
2022-08-03T16:20:35.593Z,55.10
2022-08-03T16:24:24.268Z,54.50
2022-08-03T16:28:14.430Z,54.50
2022-08-03T16:31:56.778Z,54.30
2022-08-03T16:35:38.981Z,53.70
2022-08-03T16:39:20.878Z,53.20
2022-08-03T16:43:18.435Z,52.50
2022-08-03T16:47:00.900Z,49.40
2022-08-03T16:50:42.852Z,50.60
2022-08-03T16:54:24.827Z,50.00
2022-08-03T16:58:12.535Z,49.50
2022-08-03T17:01:54.539Z,49.20
2022-08-03T17:05:47.366Z,49.00
2022-08-03T17:09:38.460Z,48.50
2022-08-03T17:13:22.418Z,47.70
2022-08-03T17:17:08.480Z,46.90
2022-08-03T17:20:58.878Z,46.70
2022-08-03T17:24:45.962Z,46.40
2022-08-03T17:28:49.289Z,44.80
2022-08-03T17:32:42.059Z,45.00
2022-08-03T17:36:36.979Z,45.50
2022-08-03T17:40:27.046Z,45.20
2022-08-03T17:44:15.528Z,44.40
2022-08-03T17:48:11.052Z,44.00
2022-08-03T17:52:10.029Z,43.70
2022-08-03T17:56:04.586Z,42.20
2022-08-03T18:00:25.917Z,41.80
2022-08-03T18:04:11.880Z,42.50
2022-08-03T18:08:02.425Z,43.00
2022-08-03T18:11:50.677Z,42.50
2022-08-03T18:15:43.275Z,42.70
2022-08-03T18:20:02.082Z,41.20
2022-08-03T18:23:36.772Z,42.60
2022-08-03T18:27:20.994Z,42.70
2022-08-03T18:31:05.817Z,42.70
2022-08-03T18:34:53.176Z,42.70
2022-08-03T18:38:39.999Z,42.40
2022-08-03T18:42:26.206Z,42.30
2022-08-03T18:46:48.198Z,42.60
2022-08-03T18:50:48.258Z,42.00
2022-08-03T18:55:03.867Z,41.50
2022-08-03T18:59:03.333Z,41.70
2022-08-03T19:03:05.247Z,43.20
2022-08-03T19:06:49.005Z,43.00
2022-08-03T19:10:34.802Z,45.00
2022-08-03T19:14:21.484Z,46.00
2022-08-03T19:18:16.102Z,47.10
2022-08-03T19:21:59.175Z,47.90
2022-08-03T19:25:41.503Z,48.70
2022-08-03T19:29:25.206Z,49.10
2022-08-03T19:33:29.923Z,49.60
2022-08-03T19:37:15.456Z,50.10
2022-08-03T19:49:15.169Z,51.90
2022-08-03T19:53:00.577Z,51.50
2022-08-03T19:56:46.959Z,51.60
2022-08-03T20:00:32.707Z,52.10
2022-08-03T20:04:20.645Z,52.00
2022-08-03T20:08:05.512Z,52.10
2022-08-03T20:11:48.408Z,52.30
2022-08-03T20:15:31.326Z,52.40
2022-08-03T20:19:14.854Z,52.40
2022-08-03T20:22:59.049Z,52.50
2022-08-03T20:26:44.384Z,52.60
2022-08-03T20:30:27.342Z,52.80
2022-08-03T20:34:09.258Z,52.80
2022-08-03T20:37:52.008Z,52.80
2022-08-03T20:41:34.644Z,53.00
2022-08-03T20:46:01.043Z,53.20
2022-08-03T20:49:23.029Z,53.10
2022-08-03T20:53:06.170Z,53.30
2022-08-03T20:56:49.279Z,53.10
2022-08-03T21:00:31.550Z,53.20
2022-08-03T21:04:14.164Z,53.30
2022-08-03T21:08:07.485Z,53.40
2022-08-03T21:11:52.167Z,53.80
2022-08-03T21:13:02.694Z,50.50
2022-08-03T21:13:11.192Z,50.80
2022-08-03T21:16:06.261Z,53.70
2022-08-03T21:19:41.539Z,53.90
2022-08-03T21:23:47.664Z,54.40
2022-08-03T21:27:32.306Z,54.60
2022-08-03T21:31:14.865Z,54.80
2022-08-03T21:35:09.565Z,55.20
2022-08-03T21:38:56.637Z,55.50
2022-08-03T21:42:42.989Z,55.60
2022-08-03T21:46:27.103Z,55.70
2022-08-03T21:50:13.123Z,55.80
2022-08-03T21:54:03.780Z,56.40
2022-08-03T21:57:51.813Z,56.10
2022-08-03T22:01:35.875Z,56.70
2022-08-03T22:05:42.903Z,56.40
2022-08-03T22:09:22.958Z,56.70
2022-08-03T22:13:04.741Z,56.50
2022-08-03T22:16:46.761Z,56.80
2022-08-03T22:20:28.765Z,57.10
2022-08-03T22:24:11.532Z,57.20
2022-08-03T22:27:54.430Z,57.20
2022-08-03T22:31:58.044Z,57.20
2022-08-03T22:35:47.745Z,57.30
2022-08-03T22:39:30.823Z,57.40
2022-08-03T22:43:12.726Z,57.40
2022-08-03T22:46:55.475Z,57.70
2022-08-03T22:50:37.991Z,57.70
2022-08-03T22:54:20.057Z,57.80
2022-08-03T22:58:01.948Z,58.10
2022-08-03T23:01:46.655Z,58.40
2022-08-03T23:06:02.458Z,58.80
2022-08-03T23:09:34.425Z,59.10
2022-08-03T23:13:18.298Z,59.10
2022-08-03T23:17:04.391Z,59.00
2022-08-03T23:20:49.458Z,59.30
2022-08-03T23:24:35.842Z,59.30
2022-08-03T23:28:19.122Z,59.60
2022-08-03T23:32:02.142Z,59.70
2022-08-03T23:36:29.078Z,59.70
2022-08-03T23:40:04.194Z,59.80
2022-08-03T23:43:51.881Z,60.00
2022-08-03T23:47:46.292Z,59.90
2022-08-03T23:51:38.923Z,60.00
2022-08-03T23:55:41.924Z,60.50
2022-08-03T23:59:42.240Z,61.60
